createdAt,value
2018-08-04T00:01:07.388Z,22.61
2018-08-04T00:03:38.800Z,22.50
2018-08-04T00:06:09.107Z,22.47
2018-08-04T00:08:41.996Z,22.40
2018-08-04T00:11:15.329Z,22.45
2018-08-04T00:13:48.171Z,22.49
2018-08-04T00:16:21.124Z,22.50
2018-08-04T00:18:52.800Z,22.50
2018-08-04T00:21:24.239Z,22.50
2018-08-04T00:23:57.296Z,22.53
2018-08-04T00:26:36.821Z,22.44
2018-08-04T00:29:08.372Z,22.44
2018-08-04T00:31:38.293Z,22.48
2018-08-04T00:34:09.860Z,22.45
2018-08-04T00:36:40.168Z,22.47
2018-08-04T00:39:13.209Z,22.39
2018-08-04T00:41:43.188Z,22.37
2018-08-04T00:44:16.175Z,22.27
2018-08-04T00:46:46.044Z,22.17
2018-08-04T00:49:18.970Z,22.17
2018-08-04T00:51:50.119Z,22.03
2018-08-04T00:54:20.601Z,21.94
2018-08-04T00:56:52.045Z,21.95
2018-08-04T00:59:22.520Z,21.93
2018-08-04T01:01:53.945Z,21.93
2018-08-04T01:04:25.371Z,21.90
2018-08-04T01:06:58.344Z,21.98
2018-08-04T01:09:31.343Z,21.93
2018-08-04T01:12:04.281Z,21.96
2018-08-04T01:14:35.652Z,21.86
2018-08-04T01:17:09.298Z,21.84
2018-08-04T01:19:39.902Z,21.64
2018-08-04T01:22:09.941Z,21.71
2018-08-04T01:24:41.464Z,21.82
2018-08-04T01:27:12.960Z,21.86
2018-08-04T01:29:46.111Z,21.92
2018-08-04T01:32:16.277Z,21.91
2018-08-04T01:34:49.088Z,21.99
2018-08-04T01:37:22.139Z,21.95
2018-08-04T01:39:55.229Z,21.80
2018-08-04T01:42:28.957Z,21.71
2018-08-04T01:45:00.694Z,21.64
2018-08-04T01:47:32.556Z,21.67
2018-08-04T01:50:02.493Z,21.65
2018-08-04T01:52:32.504Z,21.71
2018-08-04T01:55:03.436Z,21.75
2018-08-04T01:57:33.838Z,21.78
2018-08-04T02:00:05.767Z,21.74
2018-08-04T02:02:37.347Z,21.72
2018-08-04T02:05:08.695Z,21.73
2018-08-04T02:07:41.310Z,21.67
2018-08-04T02:10:12.806Z,21.66
2018-08-04T02:12:45.928Z,21.64
2018-08-04T02:15:18.576Z,21.57
2018-08-04T02:17:49.979Z,21.62
2018-08-04T02:20:22.456Z,21.62
2018-08-04T02:22:53.888Z,21.55
2018-08-04T02:25:25.445Z,21.45
2018-08-04T02:27:57.318Z,21.44
2018-08-04T02:30:28.860Z,21.31
2018-08-04T02:33:01.811Z,21.37
2018-08-04T02:35:34.751Z,21.41
2018-08-04T02:38:07.580Z,21.33
2018-08-04T02:40:38.299Z,21.27
2018-08-04T02:43:10.321Z,21.23
2018-08-04T02:45:40.328Z,21.20
2018-08-04T02:48:10.235Z,21.14
2018-08-04T02:50:43.231Z,21.03
2018-08-04T02:53:17.568Z,20.96
2018-08-04T02:55:47.752Z,20.96
2018-08-04T02:58:18.368Z,20.96
2018-08-04T03:00:48.709Z,20.84
2018-08-04T03:03:21.642Z,20.59
2018-08-04T03:05:54.598Z,20.80
2018-08-04T03:08:26.027Z,20.69
2018-08-04T03:10:57.469Z,20.59
2018-08-04T03:13:30.468Z,20.49
2018-08-04T03:16:01.800Z,20.50
2018-08-04T03:18:34.931Z,20.43
2018-08-04T03:21:07.880Z,20.38
2018-08-04T03:23:40.822Z,20.36
2018-08-04T03:26:12.288Z,20.41
2018-08-04T03:28:45.504Z,20.42
2018-08-04T03:31:15.482Z,20.40
2018-08-04T03:33:47.879Z,20.38
2018-08-04T03:36:21.003Z,20.47
2018-08-04T03:38:53.806Z,20.44
2018-08-04T03:41:25.864Z,20.41
2018-08-04T03:43:57.225Z,20.48
2018-08-04T03:46:27.136Z,20.58
2018-08-04T03:48:58.921Z,20.52
2018-08-04T03:51:29.017Z,20.58
2018-08-04T03:54:00.367Z,20.56
2018-08-04T03:56:33.388Z,20.43
2018-08-04T03:59:02.862Z,20.26
2018-08-04T04:01:34.327Z,20.27
2018-08-04T04:04:06.093Z,20.41
2018-08-04T04:06:38.298Z,20.25
2018-08-04T04:09:14.001Z,20.20
2018-08-04T04:11:46.942Z,20.35
2018-08-04T04:14:21.747Z,20.42
2018-08-04T04:16:56.344Z,20.44
2018-08-04T04:19:31.241Z,20.44
2018-08-04T04:22:03.234Z,20.49
2018-08-04T04:24:34.615Z,20.40
2018-08-04T04:27:06.785Z,20.48
2018-08-04T04:29:38.394Z,20.54
2018-08-04T04:32:10.224Z,20.58
2018-08-04T04:34:41.681Z,20.60
2018-08-04T04:37:15.497Z,20.58
2018-08-04T04:39:48.724Z,20.53
2018-08-04T04:42:20.037Z,20.58
2018-08-04T04:44:53.178Z,20.66
2018-08-04T04:47:24.943Z,20.60
2018-08-04T04:49:54.980Z,20.68
2018-08-04T04:52:24.942Z,20.26
2018-08-04T04:54:56.654Z,20.87
2018-08-04T04:57:29.672Z,21.86
2018-08-04T05:00:01.657Z,21.79
2018-08-04T05:02:34.505Z,21.86
2018-08-04T05:05:05.549Z,23.19
2018-08-04T05:07:36.946Z,23.49
2018-08-04T05:10:09.998Z,23.42
2018-08-04T05:12:42.880Z,24.01
2018-08-04T05:15:16.061Z,24.40
2018-08-04T05:17:47.982Z,24.96
2018-08-04T05:20:17.091Z,25.38
2018-08-04T05:22:48.471Z,26.07
2018-08-04T05:25:21.016Z,26.02
2018-08-04T05:27:53.895Z,26.50
2018-08-04T05:30:25.382Z,26.21
2018-08-04T05:32:56.094Z,26.04
2018-08-04T05:35:29.000Z,26.39
2018-08-04T05:38:00.425Z,26.76
2018-08-04T05:40:33.482Z,26.95
2018-08-04T05:43:04.875Z,26.48
2018-08-04T05:45:36.573Z,26.45
2018-08-04T05:48:10.876Z,26.68
2018-08-04T05:50:43.743Z,26.18
2018-08-04T05:53:15.074Z,26.48
2018-08-04T05:55:46.624Z,26.47
2018-08-04T05:58:18.792Z,27.11
2018-08-04T06:00:50.342Z,27.78
2018-08-04T06:03:21.917Z,28.32
2018-08-04T06:05:56.319Z,28.81
2018-08-04T06:08:29.174Z,28.36
2018-08-04T06:11:00.067Z,28.69
2018-08-04T06:13:33.098Z,28.55
2018-08-04T06:16:06.021Z,29.22
2018-08-04T06:18:38.926Z,29.40
2018-08-04T06:21:09.407Z,29.35
2018-08-04T06:23:40.906Z,30.09
2018-08-04T06:26:10.810Z,30.14
2018-08-04T06:28:40.723Z,30.46
2018-08-04T06:31:10.643Z,30.39
2018-08-04T06:33:40.919Z,30.21
2018-08-04T06:36:12.233Z,30.01
2018-08-04T06:38:43.637Z,30.65
2018-08-04T06:41:15.064Z,30.91
2018-08-04T06:43:49.607Z,30.96
2018-08-04T06:46:22.599Z,31.38
2018-08-04T06:48:51.370Z,31.31
2018-08-04T06:51:22.693Z,31.73
2018-08-04T06:53:53.112Z,32.32
2018-08-04T06:56:24.472Z,31.92
2018-08-04T06:58:55.939Z,32.50
2018-08-04T07:01:28.059Z,32.58
2018-08-04T07:04:00.431Z,32.74
2018-08-04T07:06:30.315Z,33.06
2018-08-04T07:09:01.707Z,32.72
2018-08-04T07:11:34.638Z,33.08
2018-08-04T07:14:05.983Z,32.11
2018-08-04T07:16:39.623Z,31.95
2018-08-04T07:19:13.828Z,33.12
2018-08-04T07:21:46.718Z,33.86
2018-08-04T07:24:16.605Z,33.75
2018-08-04T07:26:49.419Z,34.13
2018-08-04T07:29:22.227Z,34.07
2018-08-04T07:31:55.197Z,34.77
2018-08-04T07:34:26.943Z,34.25
2018-08-04T07:36:58.333Z,34.63
2018-08-04T07:39:29.689Z,35.07
2018-08-04T07:42:01.084Z,34.27
2018-08-04T07:44:30.992Z,34.85
2018-08-04T07:47:01.570Z,34.92
2018-08-04T07:49:32.336Z,34.52
2018-08-04T07:52:05.172Z,33.78
2018-08-04T07:54:38.558Z,32.89
2018-08-04T07:57:10.314Z,33.85
2018-08-04T07:59:43.153Z,35.31
2018-08-04T08:02:13.099Z,34.70
2018-08-04T08:04:44.405Z,34.62
2018-08-04T08:07:15.755Z,34.92
2018-08-04T08:09:48.601Z,34.94
2018-08-04T08:12:21.423Z,34.84
2018-08-04T08:14:52.695Z,34.18
2018-08-04T08:17:27.043Z,34.66
2018-08-04T08:19:57.564Z,34.97
2018-08-04T08:22:46.800Z,34.77
2018-08-04T08:25:16.635Z,34.48
2018-08-04T08:27:49.494Z,34.56
2018-08-04T08:30:20.095Z,34.48
2018-08-04T08:32:51.292Z,34.89
2018-08-04T08:35:22.845Z,35.20
2018-08-04T08:37:55.897Z,34.47
2018-08-04T08:40:25.861Z,35.01
2018-08-04T08:42:55.660Z,34.51
2018-08-04T08:45:28.601Z,34.62
2018-08-04T08:48:00.666Z,34.84
2018-08-04T08:50:29.735Z,33.01
2018-08-04T08:53:02.656Z,34.27
2018-08-04T08:55:36.787Z,34.48
2018-08-04T08:58:08.741Z,34.55
2018-08-04T09:00:40.550Z,34.53
2018-08-04T09:03:10.645Z,35.37
2018-08-04T09:05:41.010Z,35.65
2018-08-04T09:08:12.523Z,36.10
2018-08-04T09:10:42.414Z,35.02
2018-08-04T09:13:14.303Z,34.27
2018-08-04T09:15:48.622Z,35.07
2018-08-04T09:18:22.731Z,33.62
2018-08-04T09:20:54.201Z,35.61
2018-08-04T09:23:23.991Z,34.82
2018-08-04T09:25:57.395Z,34.21
2018-08-04T09:28:28.813Z,33.67
2018-08-04T09:30:58.699Z,34.72
2018-08-04T09:33:29.997Z,34.34
2018-08-04T09:35:59.918Z,34.30
2018-08-04T09:38:29.882Z,34.07
2018-08-04T09:41:02.887Z,34.19
2018-08-04T09:43:36.212Z,33.87
2018-08-04T09:46:10.991Z,34.35
2018-08-04T09:48:42.315Z,34.21
2018-08-04T09:51:15.813Z,33.96
2018-08-04T09:53:45.729Z,34.57
2018-08-04T09:56:18.478Z,34.65
2018-08-04T09:58:49.405Z,34.71
2018-08-04T10:01:42.272Z,34.33
2018-08-04T10:04:13.927Z,34.11
2018-08-04T10:06:47.002Z,34.32
2018-08-04T10:09:18.409Z,34.81
2018-08-04T10:11:50.001Z,34.52
2018-08-04T10:14:23.010Z,35.06
2018-08-04T10:16:57.339Z,34.92
2018-08-04T10:19:29.905Z,34.07
2018-08-04T10:22:02.703Z,34.89
2018-08-04T10:24:34.531Z,34.88
2018-08-04T10:27:04.496Z,34.38
2018-08-04T10:29:36.277Z,34.39
2018-08-04T10:32:05.813Z,34.43
2018-08-04T10:34:35.534Z,35.47
2018-08-04T10:37:05.423Z,34.18
2018-08-04T10:39:39.775Z,34.84
2018-08-04T10:42:09.712Z,33.83
2018-08-04T10:44:41.049Z,34.41
2018-08-04T10:47:14.115Z,34.06
2018-08-04T10:49:46.968Z,34.11
2018-08-04T10:52:17.405Z,34.07
2018-08-04T10:54:49.071Z,34.46
2018-08-04T10:57:20.411Z,34.38
2018-08-04T10:59:51.744Z,34.88
2018-08-04T11:02:25.575Z,33.93
2018-08-04T11:04:57.474Z,34.51
2018-08-04T11:07:30.951Z,34.54
2018-08-04T11:10:03.491Z,34.80
2018-08-04T11:12:33.404Z,35.19
2018-08-04T11:15:04.817Z,34.15
2018-08-04T11:17:39.199Z,34.92
2018-08-04T11:20:10.480Z,34.49
2018-08-04T11:22:41.952Z,34.30
2018-08-04T11:25:14.725Z,35.53
2018-08-04T11:27:44.590Z,35.38
2018-08-04T11:30:17.458Z,35.30
2018-08-04T11:32:48.749Z,34.49
2018-08-04T11:35:21.163Z,34.07
2018-08-04T11:37:51.051Z,34.52
2018-08-04T11:40:22.356Z,33.68
2018-08-04T11:42:54.171Z,34.18
2018-08-04T11:45:23.755Z,34.71
2018-08-04T11:47:53.610Z,34.65
2018-08-04T11:50:23.668Z,34.19
2018-08-04T11:52:55.009Z,33.75
2018-08-04T11:55:28.031Z,32.37
2018-08-04T11:57:58.187Z,33.24
2018-08-04T12:00:28.102Z,33.88
2018-08-04T12:02:59.962Z,33.21
2018-08-04T12:05:29.943Z,33.59
2018-08-04T12:08:00.233Z,33.64
2018-08-04T12:10:30.075Z,33.10
2018-08-04T12:13:04.484Z,33.55
2018-08-04T12:15:35.357Z,33.53
2018-08-04T12:18:06.867Z,33.52
2018-08-04T12:20:39.795Z,33.37
2018-08-04T12:23:14.173Z,33.70
2018-08-04T12:25:45.581Z,32.56
2018-08-04T12:28:17.038Z,31.62
2018-08-04T12:30:48.511Z,31.19
2018-08-04T12:33:21.294Z,31.56
2018-08-04T12:35:52.632Z,32.02
2018-08-04T12:38:25.413Z,32.27
2018-08-04T12:40:58.482Z,32.50
2018-08-04T12:43:27.872Z,33.73
2018-08-04T12:45:59.196Z,32.53
2018-08-04T12:48:31.223Z,32.43
2018-08-04T12:51:04.939Z,32.16
2018-08-04T12:53:36.419Z,32.60
2018-08-04T12:56:07.805Z,32.33
2018-08-04T12:58:39.874Z,32.49
2018-08-04T13:01:10.107Z,32.78
2018-08-04T13:03:41.994Z,32.76
2018-08-04T13:06:16.180Z,32.56
2018-08-04T13:08:47.630Z,32.75
2018-08-04T13:11:18.959Z,32.79
2018-08-04T13:13:51.842Z,32.81
2018-08-04T13:16:26.182Z,32.52
2018-08-04T13:18:59.073Z,32.36
2018-08-04T13:21:30.931Z,32.39
2018-08-04T13:24:02.340Z,31.74
2018-08-04T13:26:35.272Z,32.12
2018-08-04T13:29:08.256Z,32.78
2018-08-04T13:31:39.649Z,32.65
2018-08-04T13:34:12.628Z,32.13
2018-08-04T13:36:42.491Z,31.76
2018-08-04T13:39:12.705Z,31.58
2018-08-04T13:41:45.313Z,31.29
2018-08-04T13:44:16.576Z,32.18
2018-08-04T13:46:50.829Z,32.01
2018-08-04T13:49:22.226Z,31.52
2018-08-04T13:51:53.591Z,31.45
2018-08-04T13:54:26.482Z,32.21
2018-08-04T13:56:56.554Z,31.70
2018-08-04T13:59:26.426Z,31.29
2018-08-04T14:01:57.859Z,31.62
2018-08-04T14:04:27.836Z,31.44
2018-08-04T14:06:57.648Z,31.29
2018-08-04T14:09:28.991Z,31.05
2018-08-04T14:11:58.971Z,31.51
2018-08-04T14:14:30.267Z,31.04
2018-08-04T14:17:00.273Z,30.36
2018-08-04T14:19:32.184Z,30.36
2018-08-04T14:22:01.838Z,30.79
2018-08-04T14:24:34.851Z,31.21
2018-08-04T14:27:07.039Z,31.14
2018-08-04T14:29:38.400Z,31.21
2018-08-04T14:32:08.339Z,30.92
2018-08-04T14:34:39.719Z,30.51
2018-08-04T14:37:11.073Z,30.56
2018-08-04T14:39:44.045Z,30.53
2018-08-04T14:42:15.801Z,30.54
2018-08-04T14:44:47.251Z,30.16
2018-08-04T14:47:21.520Z,30.37
2018-08-04T14:49:52.962Z,30.24
2018-08-04T14:52:25.922Z,30.45
2018-08-04T14:54:58.798Z,30.07
2018-08-04T14:57:29.305Z,30.27
2018-08-04T15:00:02.098Z,30.33
2018-08-04T15:02:33.470Z,30.48
2018-08-04T15:05:04.877Z,30.30
2018-08-04T15:07:36.466Z,30.58
2018-08-04T15:10:09.323Z,30.59
2018-08-04T15:12:39.148Z,30.50
2018-08-04T15:15:13.549Z,30.02
2018-08-04T15:17:44.965Z,30.21
2018-08-04T15:20:17.805Z,30.29
2018-08-04T15:22:47.693Z,29.85
2018-08-04T15:25:17.707Z,30.00
2018-08-04T15:27:49.233Z,29.50
2018-08-04T15:30:22.142Z,29.30
2018-08-04T15:32:55.376Z,29.39
2018-08-04T15:35:24.761Z,29.41
2018-08-04T15:37:57.562Z,29.48
2018-08-04T15:40:27.123Z,29.15
2018-08-04T15:42:58.554Z,29.13
2018-08-04T15:45:31.646Z,29.19
2018-08-04T15:48:03.197Z,29.19
2018-08-04T15:50:34.589Z,28.79
2018-08-04T15:53:09.300Z,28.76
2018-08-04T15:55:40.821Z,29.13
2018-08-04T15:58:12.411Z,28.86
2018-08-04T16:00:45.387Z,28.96
2018-08-04T16:03:18.151Z,28.92
2018-08-04T16:05:51.124Z,28.76
2018-08-04T16:08:21.001Z,28.45
2018-08-04T16:10:52.431Z,28.68
2018-08-04T16:13:23.866Z,28.17
2018-08-04T16:15:55.319Z,28.25
2018-08-04T16:18:25.216Z,28.08
2018-08-04T16:20:57.821Z,27.87
2018-08-04T16:23:29.246Z,27.74
2018-08-04T16:26:02.203Z,27.68
2018-08-04T16:28:35.488Z,27.30
2018-08-04T16:31:05.662Z,27.37
2018-08-04T16:33:37.036Z,27.42
2018-08-04T16:36:07.156Z,27.27
2018-08-04T16:38:38.622Z,26.97
2018-08-04T16:41:11.939Z,27.14
2018-08-04T16:43:43.937Z,27.43
2018-08-04T16:46:15.262Z,27.43
2018-08-04T16:48:46.933Z,27.17
2018-08-04T16:51:18.521Z,27.01
2018-08-04T16:53:48.513Z,26.74
2018-08-04T16:56:18.403Z,27.41
2018-08-04T16:58:49.855Z,27.32
2018-08-04T17:01:19.772Z,27.32
2018-08-04T17:03:52.750Z,26.78
2018-08-04T17:06:22.877Z,26.60
2018-08-04T17:08:54.316Z,26.77
2018-08-04T17:11:24.385Z,26.63
2018-08-04T17:13:54.487Z,26.67
2018-08-04T17:16:24.511Z,26.70
2018-08-04T17:18:55.935Z,26.31
2018-08-04T17:21:26.927Z,26.45
2018-08-04T17:23:58.294Z,26.56
2018-08-04T17:26:30.215Z,26.42
2018-08-04T17:29:00.135Z,26.43
2018-08-04T17:31:31.430Z,26.09
2018-08-04T17:34:03.017Z,26.10
2018-08-04T17:36:35.952Z,26.24
2018-08-04T17:39:10.255Z,26.11
2018-08-04T17:41:43.838Z,26.21
2018-08-04T17:44:13.797Z,25.94
2018-08-04T17:46:46.708Z,25.78
2018-08-04T17:49:16.656Z,25.54
2018-08-04T17:51:46.589Z,25.51
2018-08-04T17:54:17.945Z,25.32
2018-08-04T17:56:49.462Z,24.97
2018-08-04T17:59:22.316Z,25.01
2018-08-04T18:01:53.016Z,24.74
2018-08-04T18:04:24.374Z,24.73
2018-08-04T18:06:58.342Z,24.88
2018-08-04T18:09:30.079Z,24.65
2018-08-04T18:12:03.014Z,24.63
2018-08-04T18:14:34.924Z,24.51
2018-08-04T18:17:06.755Z,24.58
2018-08-04T18:19:38.149Z,24.41
2018-08-04T18:22:09.685Z,24.47
2018-08-04T18:24:42.854Z,24.52
2018-08-04T18:27:16.508Z,24.40
2018-08-04T18:29:47.209Z,24.45
2018-08-04T18:32:18.682Z,24.39
2018-08-04T18:34:48.607Z,24.44
2018-08-04T18:37:22.012Z,24.38
2018-08-04T18:39:52.698Z,24.29
2018-08-04T18:42:24.142Z,24.20
2018-08-04T18:44:54.093Z,24.09
2018-08-04T18:47:25.522Z,24.26
2018-08-04T18:49:59.990Z,24.06
2018-08-04T18:52:33.055Z,23.89
2018-08-04T18:55:04.447Z,23.88
2018-08-04T18:57:36.416Z,23.91
2018-08-04T19:00:08.027Z,23.72
2018-08-04T19:02:42.500Z,23.65
2018-08-04T19:05:15.428Z,23.70
2018-08-04T19:07:48.340Z,23.68
2018-08-04T19:10:21.436Z,23.52
2018-08-04T19:12:54.509Z,23.41
2018-08-04T19:15:25.877Z,23.33
2018-08-04T19:17:58.748Z,23.46
2018-08-04T19:20:30.711Z,23.26
2018-08-04T19:23:05.224Z,23.13
2018-08-04T19:25:38.147Z,22.98
2018-08-04T19:28:10.567Z,23.02
2018-08-04T19:30:40.892Z,23.02
2018-08-04T19:33:11.303Z,23.01
2018-08-04T19:35:43.671Z,23.04
2018-08-04T19:38:18.296Z,22.90
2018-08-04T19:40:49.733Z,22.80
2018-08-04T19:43:18.874Z,22.84
2018-08-04T19:45:49.612Z,22.64
2018-08-04T19:48:21.221Z,22.73
2018-08-04T19:50:53.310Z,22.66
2018-08-04T19:53:23.323Z,22.60
2018-08-04T19:55:54.789Z,22.51
2018-08-04T19:58:26.296Z,22.43
2018-08-04T20:00:58.194Z,22.38
2018-08-04T20:03:31.038Z,22.30
2018-08-04T20:06:01.053Z,22.04
2018-08-04T20:08:34.181Z,22.06
2018-08-04T20:11:07.043Z,22.02
2018-08-04T20:13:36.988Z,21.85
2018-08-04T20:16:08.524Z,21.88
2018-08-04T20:18:41.421Z,21.86
2018-08-04T20:21:14.373Z,21.77
2018-08-04T20:23:49.034Z,21.82
2018-08-04T20:26:20.803Z,21.81
2018-08-04T20:28:52.206Z,21.62
2018-08-04T20:31:22.202Z,21.72
2018-08-04T20:33:54.204Z,21.55
2018-08-04T20:36:25.968Z,21.49
2018-08-04T20:38:56.391Z,21.49
2018-08-04T20:41:29.442Z,21.41
2018-08-04T20:44:02.471Z,21.32
2018-08-04T20:46:34.249Z,21.21
2018-08-04T20:49:05.794Z,21.20
2018-08-04T20:51:37.999Z,21.04
2018-08-04T20:54:10.043Z,21.09
2018-08-04T20:56:43.161Z,21.06
2018-08-04T20:59:15.322Z,21.05
2018-08-04T21:02:06.227Z,20.97
2018-08-04T21:04:37.510Z,20.93
2018-08-04T21:07:09.367Z,20.89
2018-08-04T21:09:40.820Z,21.04
2018-08-04T21:12:11.157Z,20.81
2018-08-04T21:14:42.624Z,20.79
2018-08-04T21:17:14.173Z,20.70
2018-08-04T21:19:45.862Z,20.58
2018-08-04T21:22:18.845Z,20.75
2018-08-04T21:24:51.758Z,20.62
2018-08-04T21:27:21.613Z,20.67
2018-08-04T21:29:54.605Z,20.57
2018-08-04T21:32:26.967Z,20.41
2018-08-04T21:34:58.472Z,20.59
2018-08-04T21:37:31.272Z,20.47
2018-08-04T21:40:05.863Z,20.55
2018-08-04T21:42:39.002Z,20.60
2018-08-04T21:45:08.749Z,20.46
2018-08-04T21:47:40.718Z,20.50
2018-08-04T21:50:11.713Z,20.50
2018-08-04T21:52:43.260Z,20.53
2018-08-04T21:55:17.711Z,20.39
2018-08-04T21:57:50.528Z,20.41
2018-08-04T22:00:23.444Z,20.36
2018-08-04T22:03:02.343Z,20.33
2018-08-04T22:05:34.453Z,20.41
2018-08-04T22:08:40.341Z,20.36
2018-08-04T22:11:11.895Z,20.18
2018-08-04T22:13:42.925Z,20.25
2018-08-04T22:16:15.859Z,20.29
2018-08-04T22:18:45.844Z,20.28
2018-08-04T22:21:18.956Z,20.48
2018-08-04T22:23:48.933Z,20.36
2018-08-04T22:26:19.004Z,20.34
2018-08-04T22:28:49.578Z,20.28
2018-08-04T22:31:22.188Z,20.35
2018-08-04T22:33:55.144Z,20.19
2018-08-04T22:36:29.508Z,20.27
2018-08-04T22:39:02.683Z,20.29
2018-08-04T22:41:37.159Z,20.13
2018-08-04T22:44:08.658Z,20.18
2018-08-04T22:46:41.500Z,20.20
2018-08-04T22:49:13.895Z,20.29
2018-08-04T22:51:47.653Z,20.23
2018-08-04T22:54:21.520Z,20.11
2018-08-04T22:56:54.058Z,20.14
2018-08-04T22:59:25.469Z,20.18
2018-08-04T23:01:58.488Z,20.20
2018-08-04T23:04:29.918Z,20.21
2018-08-04T23:07:01.661Z,20.17
2018-08-04T23:09:31.626Z,20.15
2018-08-04T23:12:03.891Z,20.12
2018-08-04T23:14:36.789Z,20.12
2018-08-04T23:17:06.787Z,20.06
2018-08-04T23:19:38.150Z,20.15
2018-08-04T23:22:08.159Z,20.07
2018-08-04T23:24:39.806Z,19.96
2018-08-04T23:27:11.338Z,19.98
2018-08-04T23:29:41.473Z,20.03
2018-08-04T23:32:15.869Z,19.90
2018-08-04T23:34:45.812Z,19.97
2018-08-04T23:37:15.988Z,19.83
2018-08-04T23:39:47.418Z,19.86
2018-08-04T23:42:20.560Z,19.89
2018-08-04T23:44:50.491Z,19.94
2018-08-04T23:47:22.295Z,19.86
2018-08-04T23:49:53.896Z,19.94
2018-08-04T23:52:25.518Z,19.97
2018-08-04T23:54:57.037Z,19.93
2018-08-04T23:57:29.277Z,19.86
